Metar z połowy godziny Komunikat METAR ze strony awiacja.imgw.pl Metar G00 EPSC METAR EPSC 261130Z 26007KT 230V290 7000 SCT005 OVC007 01/M00 Q1009 =